createdAt,value
2023-02-01T00:01:56.227Z,3.45
2023-02-01T00:03:57.828Z,3.05
2023-02-01T00:06:00.422Z,4.15
2023-02-01T00:08:01.901Z,3.92
2023-02-01T00:10:05.123Z,4.93
2023-02-01T00:12:06.612Z,3.22
2023-02-01T00:14:09.199Z,3.15
2023-02-01T00:16:22.000Z,4.13
2023-02-01T00:18:24.113Z,3.85
2023-02-01T00:20:25.588Z,3.50
2023-02-01T00:22:27.037Z,3.58
2023-02-01T00:24:28.557Z,3.55
2023-02-01T00:26:44.000Z,2.35
2023-02-01T00:28:46.393Z,3.50
2023-02-01T00:30:47.951Z,3.35
2023-02-01T00:32:49.484Z,2.65
2023-02-01T00:34:50.994Z,4.95
2023-02-01T00:36:52.460Z,3.40
2023-02-01T00:38:54.881Z,4.07
2023-02-01T00:41:03.742Z,3.45
2023-02-01T00:45:07.208Z,2.95
2023-02-01T00:47:08.827Z,3.65
2023-02-01T00:49:10.365Z,4.72
2023-02-01T00:51:14.592Z,3.95
2023-02-01T00:53:16.179Z,3.40
2023-02-01T00:55:17.678Z,3.78
2023-02-01T00:57:19.151Z,3.05
2023-02-01T00:59:20.667Z,3.90
2023-02-01T01:01:25.197Z,3.30
2023-02-01T01:03:26.668Z,4.28
2023-02-01T01:05:30.701Z,4.25
2023-02-01T01:07:32.169Z,3.80
2023-02-01T01:09:33.860Z,3.92
2023-02-01T01:11:38.479Z,3.88
2023-02-01T01:13:40.637Z,3.83
2023-02-01T01:15:43.031Z,3.88
2023-02-01T01:17:44.634Z,3.10
2023-02-01T01:19:46.085Z,3.40
2023-02-01T01:21:47.668Z,3.13
2023-02-01T01:23:49.269Z,3.75
2023-02-01T01:25:50.823Z,3.15
2023-02-01T01:27:52.516Z,4.32
2023-02-01T01:29:53.957Z,4.35
2023-02-01T01:31:55.520Z,3.35
2023-02-01T01:33:59.419Z,3.55
2023-02-01T01:36:00.911Z,4.28
2023-02-01T01:38:03.077Z,2.92
2023-02-01T01:40:06.518Z,3.08
2023-02-01T01:42:13.067Z,3.38
2023-02-01T01:44:51.861Z,3.00
2023-02-01T01:46:53.394Z,3.63
2023-02-01T01:49:10.512Z,3.53
2023-02-01T01:51:15.424Z,2.72
2023-02-01T01:53:24.287Z,4.72
2023-02-01T01:57:34.534Z,2.78
2023-02-01T01:59:39.757Z,3.45
2023-02-01T02:01:41.292Z,3.40
2023-02-01T02:03:48.668Z,3.60
2023-02-01T02:05:53.048Z,2.88
2023-02-01T02:07:59.086Z,3.60
2023-02-01T02:10:02.536Z,3.42
2023-02-01T02:12:04.310Z,3.92
2023-02-01T02:14:09.498Z,4.05
2023-02-01T02:16:10.959Z,3.28
2023-02-01T02:18:23.284Z,3.67
2023-02-01T02:20:36.448Z,3.55
2023-02-01T02:22:47.073Z,4.00
2023-02-01T02:25:17.280Z,2.90
2023-02-01T02:27:27.736Z,3.75
2023-02-01T02:29:41.203Z,3.75
2023-02-01T02:32:04.487Z,3.40
2023-02-01T02:34:09.093Z,3.60
2023-02-01T02:36:20.616Z,2.83
2023-02-01T02:38:48.459Z,5.22
2023-02-01T02:41:12.946Z,3.17
2023-02-01T02:43:42.660Z,3.00
2023-02-01T02:46:10.198Z,3.33
2023-02-01T02:48:26.173Z,2.95
2023-02-01T02:51:02.191Z,2.50
2023-02-01T02:53:32.542Z,3.25
2023-02-01T02:55:36.723Z,2.80
2023-02-01T02:58:00.204Z,3.70
2023-02-01T03:00:24.535Z,3.38
2023-02-01T03:02:47.207Z,3.95
2023-02-01T03:04:57.188Z,3.42
2023-02-01T03:06:58.752Z,4.03
2023-02-01T03:09:05.405Z,3.05
2023-02-01T03:11:06.835Z,4.10
2023-02-01T03:13:18.790Z,2.63
2023-02-01T03:15:25.224Z,2.67
2023-02-01T03:17:35.017Z,2.72
2023-02-01T03:19:44.585Z,4.22
2023-02-01T03:24:05.563Z,4.80
2023-02-01T03:26:13.278Z,3.17
2023-02-01T03:28:20.301Z,2.67
2023-02-01T03:30:28.173Z,3.38
2023-02-01T03:32:30.408Z,3.27
2023-02-01T03:34:31.899Z,3.25
2023-02-01T03:37:05.630Z,3.35
2023-02-01T03:39:10.328Z,3.13
2023-02-01T03:41:42.720Z,3.17
2023-02-01T03:43:56.648Z,2.03
2023-02-01T03:46:03.693Z,3.08
2023-02-01T03:48:06.106Z,3.50
2023-02-01T03:50:26.358Z,3.78
2023-02-01T03:52:32.571Z,3.70
2023-02-01T03:54:34.726Z,2.10
2023-02-01T03:56:39.313Z,2.90
2023-02-01T03:58:40.988Z,2.28
2023-02-01T04:00:47.154Z,1.80
2023-02-01T04:02:49.432Z,1.65
2023-02-01T04:04:50.966Z,2.17
2023-02-01T04:06:52.763Z,2.13
2023-02-01T04:08:54.225Z,2.25
2023-02-01T04:10:55.681Z,3.50
2023-02-01T04:12:57.143Z,2.53
2023-02-01T04:14:59.171Z,3.28
2023-02-01T04:17:00.709Z,2.67
2023-02-01T04:19:02.220Z,2.92
2023-02-01T04:21:04.025Z,2.95
2023-02-01T04:23:05.477Z,3.10
2023-02-01T04:25:08.949Z,3.67
2023-02-01T04:27:10.450Z,2.58
2023-02-01T04:29:27.249Z,2.80
2023-02-01T04:31:28.764Z,2.58
2023-02-01T04:33:30.903Z,3.10
2023-02-01T04:35:32.402Z,2.17
2023-02-01T04:37:34.226Z,2.92
2023-02-01T04:39:35.704Z,4.22
2023-02-01T04:41:37.139Z,3.40
2023-02-01T04:43:38.547Z,3.75
2023-02-01T04:45:39.957Z,3.58
2023-02-01T04:47:41.357Z,4.00
2023-02-01T04:49:42.940Z,3.35
2023-02-01T04:51:44.748Z,3.28
2023-02-01T04:53:46.249Z,3.53
2023-02-01T04:55:49.658Z,3.25
2023-02-01T04:57:51.088Z,3.25
2023-02-01T04:59:52.510Z,2.90
2023-02-01T05:01:53.930Z,3.38
2023-02-01T05:03:55.626Z,4.47
2023-02-01T05:05:57.445Z,3.15
2023-02-01T05:07:59.407Z,3.30
2023-02-01T05:10:00.837Z,3.58
2023-02-01T05:12:20.712Z,3.17
2023-02-01T05:14:22.184Z,3.10
2023-02-01T05:16:23.680Z,2.75
2023-02-01T05:18:25.115Z,3.00
2023-02-01T05:20:26.666Z,3.35
2023-02-01T05:22:28.138Z,3.30
2023-02-01T05:24:29.603Z,3.88
2023-02-01T05:26:31.159Z,3.30
2023-02-01T05:28:32.633Z,2.65
2023-02-01T05:30:36.131Z,2.92
2023-02-01T05:32:37.688Z,1.67
2023-02-01T05:34:39.187Z,2.20
2023-02-01T05:36:41.319Z,2.50
2023-02-01T05:38:42.748Z,2.05
2023-02-01T05:40:50.377Z,2.42
2023-02-01T05:42:51.787Z,2.85
2023-02-01T05:44:53.220Z,2.25
2023-02-01T05:46:54.694Z,2.88
2023-02-01T05:48:56.215Z,2.53
2023-02-01T05:50:57.694Z,2.22
2023-02-01T05:52:59.108Z,1.98
2023-02-01T05:55:00.577Z,2.10
2023-02-01T05:57:02.061Z,2.00
2023-02-01T05:59:03.485Z,2.72
2023-02-01T06:01:05.119Z,2.30
2023-02-01T06:03:07.613Z,2.58
2023-02-01T06:05:09.470Z,1.98
2023-02-01T06:07:11.371Z,2.38
2023-02-01T06:09:12.978Z,3.38
2023-02-01T06:11:30.564Z,2.60
2023-02-01T06:15:38.338Z,2.40
2023-02-01T06:17:42.393Z,2.85
2023-02-01T06:19:44.961Z,3.53
2023-02-01T06:21:46.685Z,2.78
2023-02-01T06:23:48.145Z,3.63
2023-02-01T06:25:49.751Z,3.67
2023-02-01T06:27:51.296Z,3.25
2023-02-01T06:29:52.823Z,2.83
2023-02-01T06:31:54.384Z,3.30
2023-02-01T06:33:55.915Z,3.20
2023-02-01T06:35:59.482Z,3.20
2023-02-01T06:38:01.023Z,2.70
2023-02-01T06:40:02.477Z,3.35
2023-02-01T06:42:04.868Z,2.78
2023-02-01T06:44:06.396Z,2.67
2023-02-01T06:46:10.817Z,3.47
2023-02-01T06:48:12.321Z,2.40
2023-02-01T06:50:13.857Z,2.50
2023-02-01T06:52:15.285Z,2.92
2023-02-01T06:54:16.854Z,2.78
2023-02-01T06:56:18.949Z,2.63
2023-02-01T06:58:20.508Z,3.15
2023-02-01T07:00:25.978Z,2.28
2023-02-01T07:02:27.643Z,2.42
2023-02-01T07:04:29.099Z,3.25
2023-02-01T07:06:30.564Z,2.38
2023-02-01T07:08:34.169Z,1.80
2023-02-01T07:10:35.891Z,3.40
2023-02-01T07:12:37.397Z,3.03
2023-02-01T07:14:38.843Z,2.00
2023-02-01T07:16:40.405Z,2.90
2023-02-01T07:18:41.934Z,2.97
2023-02-01T07:20:43.753Z,2.90
2023-02-01T07:22:45.180Z,2.45
2023-02-01T07:24:55.887Z,4.93
2023-02-01T07:26:57.315Z,4.38
2023-02-01T07:28:58.738Z,2.92
2023-02-01T07:31:07.589Z,3.55
2023-02-01T07:35:10.422Z,3.42
2023-02-01T07:37:11.919Z,2.97
2023-02-01T07:39:13.397Z,3.90
2023-02-01T07:41:15.607Z,2.92
2023-02-01T07:43:17.381Z,3.25
2023-02-01T07:45:21.609Z,3.72
2023-02-01T07:47:26.389Z,3.45
2023-02-01T07:49:27.834Z,2.95
2023-02-01T07:51:29.310Z,3.45
2023-02-01T07:53:32.103Z,3.30
2023-02-01T07:55:34.191Z,3.33
2023-02-01T07:57:35.650Z,3.85
2023-02-01T07:59:57.030Z,2.17
2023-02-01T08:01:58.465Z,2.75
2023-02-01T08:04:02.922Z,2.65
2023-02-01T08:06:05.395Z,2.53
2023-02-01T08:08:07.427Z,2.63
2023-02-01T08:10:12.063Z,3.05
2023-02-01T08:12:13.515Z,2.75
2023-02-01T08:14:14.955Z,2.60
2023-02-01T08:16:18.108Z,3.13
2023-02-01T08:18:19.851Z,2.55
2023-02-01T08:20:24.996Z,2.60
2023-02-01T08:22:26.761Z,2.95
2023-02-01T08:24:28.209Z,2.78
2023-02-01T08:26:29.708Z,3.50
2023-02-01T08:28:31.145Z,2.60
2023-02-01T08:30:32.702Z,2.90
2023-02-01T08:32:34.644Z,3.33
2023-02-01T08:34:36.075Z,3.28
2023-02-01T08:36:39.138Z,3.08
2023-02-01T08:38:41.105Z,2.42
2023-02-01T08:40:42.588Z,2.35
2023-02-01T08:42:53.276Z,2.47
2023-02-01T08:44:54.708Z,2.97
2023-02-01T08:46:56.145Z,2.92
2023-02-01T08:48:57.677Z,3.30
2023-02-01T08:51:03.872Z,3.47
2023-02-01T08:53:05.331Z,3.25
2023-02-01T08:55:07.571Z,2.30
2023-02-01T08:57:10.457Z,2.95
2023-02-01T08:59:11.907Z,1.77
2023-02-01T09:01:17.940Z,2.00
2023-02-01T09:03:20.139Z,3.05
2023-02-01T09:05:23.338Z,3.10
2023-02-01T09:07:24.868Z,2.97
2023-02-01T09:09:28.595Z,2.78
2023-02-01T09:11:30.004Z,1.60
2023-02-01T09:13:31.747Z,2.78
2023-02-01T09:15:33.343Z,3.08
2023-02-01T09:17:35.269Z,3.97
2023-02-01T09:19:36.723Z,3.53
2023-02-01T09:21:38.172Z,2.83
2023-02-01T09:23:39.602Z,2.60
2023-02-01T09:25:41.079Z,3.25
2023-02-01T09:27:42.497Z,2.53
2023-02-01T09:29:43.938Z,2.95
2023-02-01T09:31:57.330Z,2.50
2023-02-01T09:34:04.038Z,2.37
2023-02-01T09:36:06.112Z,3.20
2023-02-01T09:38:07.543Z,2.10
2023-02-01T09:40:15.171Z,2.83
2023-02-01T09:42:35.769Z,1.80
2023-02-01T09:45:04.933Z,2.50
2023-02-01T09:47:13.180Z,3.83
2023-02-01T09:49:24.352Z,3.25
2023-02-01T09:51:31.313Z,2.95
2023-02-01T09:53:43.189Z,2.60
2023-02-01T09:55:48.500Z,2.85
2023-02-01T09:58:01.212Z,3.55
2023-02-01T10:00:08.173Z,2.88
2023-02-01T10:02:22.699Z,3.60
2023-02-01T10:04:24.330Z,2.65
2023-02-01T10:06:37.830Z,2.22
2023-02-01T10:09:16.626Z,3.28
2023-02-01T10:11:50.380Z,2.75
2023-02-01T10:14:03.944Z,2.75
2023-02-01T10:16:20.154Z,3.30
2023-02-01T10:18:24.328Z,2.95
2023-02-01T10:20:40.894Z,2.58
2023-02-01T10:23:19.169Z,3.25
2023-02-01T10:25:23.910Z,3.60
2023-02-01T10:27:36.606Z,2.88
2023-02-01T10:29:41.082Z,3.17
2023-02-01T10:31:42.934Z,2.83
2023-02-01T10:33:50.312Z,3.70
2023-02-01T10:36:00.422Z,3.53
2023-02-01T10:38:03.145Z,2.63
2023-02-01T10:40:17.757Z,2.17
2023-02-01T10:42:22.502Z,2.92
2023-02-01T10:44:31.121Z,2.63
2023-02-01T10:46:34.489Z,2.05
2023-02-01T10:48:37.408Z,2.72
2023-02-01T10:50:50.369Z,2.60
2023-02-01T10:53:10.124Z,2.70
2023-02-01T10:55:39.905Z,2.75
2023-02-01T10:57:42.095Z,3.08
2023-02-01T10:59:45.732Z,2.92
2023-02-01T11:01:49.991Z,1.83
2023-02-01T11:03:56.909Z,2.45
2023-02-01T11:05:58.617Z,2.50
2023-02-01T11:08:01.352Z,3.05
2023-02-01T11:10:03.544Z,2.58
2023-02-01T11:12:05.304Z,2.55
2023-02-01T11:14:17.035Z,2.38
2023-02-01T11:16:19.959Z,2.63
2023-02-01T11:18:28.555Z,3.13
2023-02-01T11:20:32.677Z,2.72
2023-02-01T11:22:34.225Z,2.28
2023-02-01T11:24:39.153Z,2.72
2023-02-01T11:26:42.495Z,2.90
2023-02-01T11:28:53.425Z,2.50
2023-02-01T11:30:57.935Z,2.60
2023-02-01T11:33:00.784Z,2.10
2023-02-01T11:35:06.673Z,2.38
2023-02-01T11:37:19.557Z,2.15
2023-02-01T11:39:24.087Z,1.77
2023-02-01T11:41:28.623Z,1.77
2023-02-01T11:43:30.355Z,1.75
2023-02-01T11:45:38.502Z,2.10
2023-02-01T11:47:41.494Z,1.63
2023-02-01T11:49:43.660Z,1.58
2023-02-01T11:52:11.624Z,1.25
2023-02-01T11:54:29.287Z,1.80
2023-02-01T11:57:06.057Z,2.03
2023-02-01T11:59:13.431Z,1.80
2023-02-01T12:01:53.687Z,1.95
2023-02-01T12:04:04.711Z,1.60
2023-02-01T12:06:21.092Z,1.83
2023-02-01T12:08:48.263Z,1.85
2023-02-01T12:10:55.693Z,1.42
2023-02-01T12:12:57.028Z,1.73
2023-02-01T12:15:29.913Z,2.10
2023-02-01T12:18:08.816Z,1.42
2023-02-01T12:20:19.401Z,1.73
2023-02-01T12:22:48.983Z,0.90
2023-02-01T12:25:17.270Z,0.73
2023-02-01T12:27:43.874Z,0.30
2023-02-01T12:30:11.629Z,0.35
2023-02-01T12:32:27.290Z,0.30
2023-02-01T12:34:38.270Z,0.38
2023-02-01T12:36:58.472Z,0.38
2023-02-01T12:39:02.687Z,0.40
2023-02-01T12:41:41.372Z,0.40
2023-02-01T12:43:56.475Z,0.30
2023-02-01T12:46:10.022Z,0.20
2023-02-01T12:48:38.386Z,0.20
2023-02-01T12:50:54.410Z,0.30
2023-02-01T12:53:08.612Z,0.30
2023-02-01T12:55:54.255Z,0.38
2023-02-01T12:58:27.965Z,0.30
2023-02-01T13:00:40.716Z,0.20
2023-02-01T13:02:51.252Z,0.40
2023-02-01T13:05:11.240Z,0.30
2023-02-01T13:07:18.024Z,0.30
2023-02-01T13:09:35.429Z,0.30
2023-02-01T13:11:43.331Z,0.40
2023-02-01T13:13:59.347Z,0.60
2023-02-01T13:16:29.678Z,0.45
2023-02-01T13:18:39.130Z,0.40
2023-02-01T13:20:50.659Z,0.55
2023-02-01T13:23:02.222Z,0.60
2023-02-01T13:25:15.835Z,1.17
2023-02-01T13:27:18.236Z,0.77
2023-02-01T13:29:21.869Z,0.65
2023-02-01T13:31:23.344Z,0.60
2023-02-01T13:33:54.736Z,0.70
2023-02-01T13:36:21.525Z,1.25
2023-02-01T13:39:00.853Z,1.00
2023-02-01T13:41:27.660Z,1.27
2023-02-01T13:43:32.458Z,1.50
2023-02-01T13:45:38.022Z,0.75
2023-02-01T13:47:43.091Z,0.88
2023-02-01T13:49:44.598Z,0.90
2023-02-01T13:51:49.637Z,1.60
2023-02-01T13:53:51.169Z,1.20
2023-02-01T13:55:59.873Z,1.00
2023-02-01T13:58:12.303Z,0.77
2023-02-01T14:00:36.064Z,0.98
2023-02-01T14:02:41.533Z,1.00
2023-02-01T14:04:49.443Z,1.02
2023-02-01T14:06:54.330Z,1.40
2023-02-01T14:09:14.090Z,1.27
2023-02-01T14:11:54.391Z,1.60
2023-02-01T14:13:55.844Z,1.50
2023-02-01T14:16:03.561Z,1.40
2023-02-01T14:18:42.134Z,1.17
2023-02-01T14:22:51.127Z,1.55
2023-02-01T14:24:55.532Z,3.20
2023-02-01T14:27:00.089Z,1.17
2023-02-01T14:29:20.356Z,1.70
2023-02-01T14:31:51.742Z,1.35
2023-02-01T14:33:58.947Z,1.90
2023-02-01T14:36:06.871Z,1.85
2023-02-01T14:38:12.210Z,2.10
2023-02-01T14:40:13.656Z,1.83
2023-02-01T14:42:20.516Z,2.40
2023-02-01T14:44:30.880Z,2.28
2023-02-01T14:47:07.894Z,2.25
2023-02-01T14:49:11.067Z,2.20
2023-02-01T14:51:16.308Z,2.28
2023-02-01T14:53:28.516Z,3.08
2023-02-01T14:55:41.824Z,1.85
2023-02-01T14:57:46.675Z,3.10
2023-02-01T14:59:50.299Z,1.90
2023-02-01T15:01:57.419Z,2.65
2023-02-01T15:04:22.946Z,3.33
2023-02-01T15:06:29.058Z,4.15
2023-02-01T15:08:40.173Z,2.50
2023-02-01T15:10:46.318Z,3.72
2023-02-01T15:12:50.284Z,3.00
2023-02-01T15:15:17.411Z,3.47
2023-02-01T15:17:20.702Z,2.80
2023-02-01T15:19:28.658Z,2.53
2023-02-01T15:21:32.845Z,2.75
2023-02-01T15:23:34.716Z,3.28
2023-02-01T15:25:39.453Z,2.15
2023-02-01T15:27:41.033Z,3.22
2023-02-01T15:29:42.557Z,2.95
2023-02-01T15:31:47.665Z,2.97
2023-02-01T15:33:58.620Z,3.55
2023-02-01T15:36:06.142Z,3.22
2023-02-01T15:38:25.901Z,3.03
2023-02-01T15:40:27.488Z,2.88
2023-02-01T15:42:29.004Z,3.33
2023-02-01T15:44:41.303Z,2.70
2023-02-01T15:46:46.164Z,3.33
2023-02-01T15:48:51.874Z,2.38
2023-02-01T15:50:56.449Z,3.53
2023-02-01T15:52:58.052Z,3.30
2023-02-01T15:55:02.822Z,3.70
2023-02-01T15:57:06.418Z,2.72
2023-02-01T15:59:17.926Z,2.65
2023-02-01T16:01:20.683Z,3.42
2023-02-01T16:03:35.850Z,2.30
2023-02-01T16:05:45.602Z,2.47
2023-02-01T16:07:58.044Z,1.50
2023-02-01T16:10:07.870Z,1.35
2023-02-01T16:12:32.485Z,1.50
2023-02-01T16:14:33.993Z,1.48
2023-02-01T16:16:35.463Z,1.25
2023-02-01T16:18:36.903Z,2.10
2023-02-01T16:20:40.414Z,2.00
2023-02-01T16:22:41.851Z,2.20
2023-02-01T16:24:43.467Z,2.30
2023-02-01T16:26:44.942Z,1.33
2023-02-01T16:28:46.829Z,1.58
2023-02-01T16:30:49.703Z,2.25
2023-02-01T16:32:59.735Z,2.25
2023-02-01T16:35:01.373Z,2.20
2023-02-01T16:37:04.377Z,1.70
2023-02-01T16:39:06.054Z,1.75
2023-02-01T16:41:09.124Z,1.02
2023-02-01T16:43:28.938Z,0.43
2023-02-01T16:45:30.903Z,1.30
2023-02-01T16:47:32.377Z,1.33
2023-02-01T16:49:34.618Z,1.73
2023-02-01T16:51:38.786Z,1.67
2023-02-01T16:53:53.588Z,1.75
2023-02-01T16:55:58.237Z,1.80
2023-02-01T16:57:59.770Z,1.98
2023-02-01T17:00:17.917Z,1.55
2023-02-01T17:02:24.611Z,2.03
2023-02-01T17:04:26.367Z,1.85
2023-02-01T17:06:31.010Z,2.13
2023-02-01T17:08:36.126Z,2.20
2023-02-01T17:10:38.163Z,2.50
2023-02-01T17:12:41.203Z,2.08
2023-02-01T17:14:42.776Z,2.95
2023-02-01T17:16:46.571Z,1.90
2023-02-01T17:19:01.042Z,3.20
2023-02-01T17:21:05.430Z,2.65
2023-02-01T17:23:07.451Z,3.30
2023-02-01T17:25:17.025Z,3.42
2023-02-01T17:27:19.097Z,3.03
2023-02-01T17:29:21.009Z,2.72
2023-02-01T17:31:22.689Z,2.95
2023-02-01T17:33:35.972Z,2.63
2023-02-01T17:35:37.790Z,2.75
2023-02-01T17:37:39.212Z,2.25
2023-02-01T17:39:55.629Z,3.85
2023-02-01T17:41:57.076Z,2.85
2023-02-01T17:43:58.582Z,3.03
2023-02-01T17:46:10.664Z,2.92
2023-02-01T17:48:12.114Z,3.25
2023-02-01T17:50:13.917Z,2.83
2023-02-01T17:52:18.619Z,3.38
2023-02-01T17:54:20.456Z,3.80
2023-02-01T17:56:26.128Z,2.70
2023-02-01T17:58:30.379Z,2.92
2023-02-01T18:00:32.050Z,2.47
2023-02-01T18:02:33.542Z,3.20
2023-02-01T18:04:34.991Z,5.50
2023-02-01T18:06:38.588Z,3.67
2023-02-01T18:08:40.352Z,3.92
2023-02-01T18:10:41.795Z,3.70
2023-02-01T18:12:43.328Z,3.60
2023-02-01T18:14:44.804Z,2.92
2023-02-01T18:16:46.304Z,3.25
2023-02-01T18:18:48.334Z,3.35
2023-02-01T18:20:50.129Z,3.28
2023-02-01T18:22:52.076Z,3.25
2023-02-01T18:24:53.481Z,3.50
2023-02-01T18:26:55.063Z,3.38
2023-02-01T18:28:56.608Z,3.20
2023-02-01T18:30:58.261Z,4.40
2023-02-01T18:33:00.191Z,5.00
2023-02-01T18:35:01.744Z,3.45
2023-02-01T18:37:03.190Z,3.47
2023-02-01T18:39:04.638Z,2.88
2023-02-01T18:41:06.071Z,2.35
2023-02-01T18:43:10.992Z,3.13
2023-02-01T18:45:23.190Z,3.80
2023-02-01T18:47:24.747Z,3.10
2023-02-01T18:49:26.167Z,3.65
2023-02-01T18:51:27.581Z,3.17
2023-02-01T18:53:29.455Z,4.03
2023-02-01T18:55:34.395Z,2.90
2023-02-01T18:57:35.850Z,2.58
2023-02-01T18:59:37.520Z,4.57
2023-02-01T19:01:39.117Z,2.92
2023-02-01T19:03:43.398Z,3.45
2023-02-01T19:05:56.264Z,4.95
2023-02-01T19:07:57.899Z,1.95
2023-02-01T19:09:59.356Z,3.42
2023-02-01T19:12:00.904Z,3.05
2023-02-01T19:14:02.363Z,2.97
2023-02-01T19:16:11.843Z,2.50
2023-02-01T19:18:15.265Z,3.20
2023-02-01T19:20:19.558Z,4.18
2023-02-01T19:22:21.105Z,2.78
2023-02-01T19:24:23.715Z,3.28
2023-02-01T19:26:25.194Z,3.08
2023-02-01T19:28:26.739Z,2.83
2023-02-01T19:30:28.166Z,3.03
2023-02-01T19:32:30.213Z,2.53
2023-02-01T19:34:32.902Z,3.53
2023-02-01T19:36:34.351Z,3.13
2023-02-01T19:38:35.932Z,3.10
2023-02-01T19:40:37.413Z,2.72
2023-02-01T19:42:38.891Z,2.80
2023-02-01T19:44:40.763Z,3.63
2023-02-01T19:46:42.265Z,3.35
2023-02-01T19:48:43.756Z,3.75
2023-02-01T19:50:45.739Z,2.17
2023-02-01T19:52:47.941Z,2.95
2023-02-01T19:54:49.381Z,3.55
2023-02-01T19:56:51.198Z,3.08
2023-02-01T19:58:52.750Z,2.95
2023-02-01T20:00:57.316Z,4.45
2023-02-01T20:02:58.924Z,2.50
2023-02-01T20:05:00.388Z,3.85
2023-02-01T20:07:02.100Z,2.78
2023-02-01T20:09:04.099Z,3.58
2023-02-01T20:11:06.823Z,2.35
2023-02-01T20:13:08.234Z,3.55
2023-02-01T20:15:10.109Z,3.35
2023-02-01T20:17:14.937Z,2.70
2023-02-01T20:19:16.485Z,3.42
2023-02-01T20:21:18.865Z,4.57
2023-02-01T20:23:20.919Z,3.50
2023-02-01T20:25:23.196Z,3.45
2023-02-01T20:27:26.367Z,3.08
2023-02-01T20:29:27.792Z,4.57
2023-02-01T20:31:29.880Z,3.67
2023-02-01T20:33:31.847Z,3.55
2023-02-01T20:35:33.288Z,3.53
2023-02-01T20:37:37.670Z,3.63
2023-02-01T20:39:39.096Z,3.05
2023-02-01T20:41:41.040Z,3.70
2023-02-01T20:43:42.530Z,2.35
2023-02-01T20:45:44.360Z,3.45
2023-02-01T20:47:55.492Z,3.38
2023-02-01T20:49:56.973Z,3.42
2023-02-01T20:51:58.487Z,3.30
2023-02-01T20:53:59.949Z,2.53
2023-02-01T20:56:01.540Z,3.25
2023-02-01T20:58:03.037Z,3.47
2023-02-01T21:00:10.013Z,3.20
2023-02-01T21:02:11.475Z,2.70
2023-02-01T21:04:12.895Z,2.45
2023-02-01T21:06:14.307Z,3.58
2023-02-01T21:08:15.857Z,2.78
2023-02-01T21:10:17.380Z,3.35
2023-02-01T21:12:18.842Z,2.50
2023-02-01T21:14:20.543Z,2.10
2023-02-01T21:16:22.262Z,3.50
2023-02-01T21:18:23.998Z,2.78
2023-02-01T21:20:25.483Z,2.70
2023-02-01T21:22:26.934Z,3.08
2023-02-01T21:24:28.347Z,2.78
2023-02-01T21:26:40.790Z,3.35
2023-02-01T21:28:42.339Z,3.40
2023-02-01T21:30:44.208Z,3.67
2023-02-01T21:32:45.690Z,2.25
2023-02-01T21:34:47.159Z,3.42
2023-02-01T21:36:48.579Z,2.67
2023-02-01T21:38:51.896Z,2.05
2023-02-01T21:41:13.293Z,3.40
2023-02-01T21:43:14.749Z,2.60
2023-02-01T21:45:17.729Z,2.78
2023-02-01T21:47:25.858Z,2.83
2023-02-01T21:51:30.935Z,4.18
2023-02-01T21:53:32.869Z,3.10
2023-02-01T21:55:34.277Z,4.07
2023-02-01T21:57:35.699Z,2.97
2023-02-01T21:59:37.334Z,2.45
2023-02-01T22:01:40.303Z,2.55
2023-02-01T22:03:41.712Z,2.72
2023-02-01T22:05:43.288Z,2.65
2023-02-01T22:07:44.746Z,3.15
2023-02-01T22:09:46.315Z,3.22
2023-02-01T22:11:48.716Z,3.05
2023-02-01T22:13:50.604Z,2.75
2023-02-01T22:15:52.276Z,3.50
2023-02-01T22:17:53.953Z,3.17
2023-02-01T22:19:55.419Z,3.28
2023-02-01T22:21:56.876Z,3.30
2023-02-01T22:23:59.391Z,3.05
2023-02-01T22:26:02.427Z,2.35
2023-02-01T22:28:32.595Z,3.20
2023-02-01T22:30:25.583Z,2.30
2023-02-01T22:32:27.287Z,3.03
2023-02-01T22:34:28.721Z,3.17
2023-02-01T22:36:30.223Z,2.38
2023-02-01T22:38:33.048Z,3.03
2023-02-01T22:40:34.495Z,2.60
2023-02-01T22:42:35.953Z,2.85
2023-02-01T22:44:37.450Z,3.67
2023-02-01T22:46:40.072Z,2.45
2023-02-01T22:48:43.391Z,2.90
2023-02-01T22:50:45.326Z,3.00
2023-02-01T22:52:46.847Z,2.17
2023-02-01T22:54:48.328Z,2.25
2023-02-01T22:56:50.352Z,2.90
2023-02-01T22:58:56.736Z,3.03
2023-02-01T23:01:08.048Z,3.20
2023-02-01T23:03:09.763Z,2.70
2023-02-01T23:05:11.284Z,4.07
2023-02-01T23:07:12.762Z,3.58
2023-02-01T23:09:15.809Z,2.95
2023-02-01T23:11:17.294Z,2.70
2023-02-01T23:13:18.734Z,2.63
2023-02-01T23:15:20.262Z,2.75
2023-02-01T23:17:23.705Z,3.35
2023-02-01T23:19:25.162Z,2.72
2023-02-01T23:21:27.253Z,3.42
2023-02-01T23:23:28.687Z,3.75
2023-02-01T23:25:30.161Z,2.95
2023-02-01T23:27:31.620Z,2.10
2023-02-01T23:29:33.193Z,2.70
2023-02-01T23:31:35.728Z,2.85
2023-02-01T23:33:38.063Z,3.38
2023-02-01T23:35:39.600Z,3.13
2023-02-01T23:37:41.187Z,3.38
2023-02-01T23:39:42.609Z,3.25
2023-02-01T23:41:44.064Z,2.85
2023-02-01T23:43:57.716Z,2.60
2023-02-01T23:45:59.290Z,3.20
2023-02-01T23:48:00.734Z,2.42
2023-02-01T23:50:02.425Z,3.45
2023-02-01T23:52:05.561Z,3.25
2023-02-01T23:54:09.354Z,2.95
2023-02-01T23:56:42.403Z,3.03
2023-02-01T23:58:43.943Z,2.50
